createdAt,value
2022-08-24T00:00:35.035Z,1.40
2022-08-24T00:01:37.420Z,1.50
2022-08-24T00:02:39.950Z,1.65
2022-08-24T00:03:43.687Z,1.50
2022-08-24T00:04:47.100Z,1.42
2022-08-24T00:05:51.727Z,1.30
2022-08-24T00:06:53.894Z,1.45
2022-08-24T00:07:56.114Z,1.60
2022-08-24T00:08:59.201Z,1.58
2022-08-24T00:10:01.925Z,2.03
2022-08-24T00:11:05.321Z,1.75
2022-08-24T00:12:08.425Z,1.67
2022-08-24T00:13:14.658Z,1.52
2022-08-24T00:14:17.750Z,1.65
2022-08-24T00:15:20.596Z,1.52
2022-08-24T00:16:23.721Z,1.60
2022-08-24T00:17:25.938Z,1.58
2022-08-24T00:18:28.344Z,1.50
2022-08-24T00:19:30.570Z,1.45
2022-08-24T00:20:33.580Z,1.60
2022-08-24T00:21:35.793Z,1.70
2022-08-24T00:22:38.978Z,1.75
2022-08-24T00:23:41.647Z,1.65
2022-08-24T00:24:44.302Z,2.00
2022-08-24T00:25:46.841Z,1.30
2022-08-24T00:26:49.423Z,1.83
2022-08-24T00:27:51.767Z,1.52
2022-08-24T00:28:54.072Z,1.70
2022-08-24T00:29:56.474Z,1.52
2022-08-24T00:30:59.018Z,1.63
2022-08-24T00:32:01.478Z,1.65
2022-08-24T00:33:03.743Z,1.42
2022-08-24T00:34:06.769Z,1.98
2022-08-24T00:35:10.283Z,1.67
2022-08-24T00:36:12.463Z,1.58
2022-08-24T00:37:14.669Z,1.30
2022-08-24T00:38:17.338Z,1.52
2022-08-24T00:39:19.898Z,1.42
2022-08-24T00:40:35.910Z,1.75
2022-08-24T00:41:44.212Z,1.25
2022-08-24T00:42:46.882Z,1.48
2022-08-24T00:43:58.475Z,1.60
2022-08-24T00:45:00.682Z,1.55
2022-08-24T00:46:25.535Z,2.17
2022-08-24T00:47:35.019Z,1.40
2022-08-24T00:48:42.574Z,1.75
2022-08-24T00:49:56.075Z,1.40
2022-08-24T00:50:59.963Z,1.48
2022-08-24T00:52:06.231Z,1.88
2022-08-24T00:53:39.355Z,2.00
2022-08-24T00:54:49.332Z,1.58
2022-08-24T00:55:56.049Z,1.70
2022-08-24T00:57:04.392Z,1.40
2022-08-24T00:58:20.773Z,1.63
2022-08-24T00:59:34.242Z,1.65
2022-08-24T01:00:42.039Z,1.20
2022-08-24T01:01:51.343Z,1.50
2022-08-24T01:03:04.292Z,1.40
2022-08-24T01:04:10.913Z,1.67
2022-08-24T01:05:13.318Z,1.60
2022-08-24T01:06:15.929Z,1.83
2022-08-24T01:07:19.034Z,1.67
2022-08-24T01:08:21.746Z,1.70
2022-08-24T01:09:24.243Z,1.60
2022-08-24T01:10:30.361Z,2.05
2022-08-24T01:11:34.143Z,1.58
2022-08-24T01:12:39.494Z,1.67
2022-08-24T01:13:47.457Z,1.65
2022-08-24T01:14:49.784Z,1.90
2022-08-24T01:15:55.153Z,1.77
2022-08-24T01:17:16.055Z,1.58
2022-08-24T01:19:51.349Z,1.30
2022-08-24T01:21:01.625Z,1.70
2022-08-24T01:22:11.190Z,1.90
2022-08-24T01:23:36.545Z,1.75
2022-08-24T01:24:39.782Z,1.60
2022-08-24T01:25:44.572Z,1.42
2022-08-24T01:26:49.480Z,1.60
2022-08-24T01:27:53.105Z,1.52
2022-08-24T01:29:00.189Z,1.90
2022-08-24T01:30:09.518Z,1.38
2022-08-24T01:31:13.605Z,1.33
2022-08-24T01:32:24.396Z,1.70
2022-08-24T01:33:30.170Z,1.60
2022-08-24T01:34:32.334Z,1.30
2022-08-24T01:35:36.798Z,2.08
2022-08-24T01:36:51.558Z,1.80
2022-08-24T01:37:55.925Z,1.63
2022-08-24T01:39:02.416Z,1.50
2022-08-24T01:40:07.300Z,1.90
2022-08-24T01:41:09.545Z,1.70
2022-08-24T01:42:14.659Z,1.75
2022-08-24T01:43:18.978Z,1.63
2022-08-24T01:44:24.474Z,1.48
2022-08-24T01:45:27.298Z,1.92
2022-08-24T01:46:29.578Z,1.77
2022-08-24T01:47:31.770Z,1.60
2022-08-24T01:48:34.015Z,2.00
2022-08-24T01:49:39.879Z,1.90
2022-08-24T01:50:42.801Z,2.25
2022-08-24T01:51:46.376Z,1.75
2022-08-24T01:53:05.806Z,1.92
2022-08-24T01:54:09.854Z,1.80
2022-08-24T01:55:14.180Z,1.40
2022-08-24T01:56:21.275Z,2.20
2022-08-24T01:57:26.938Z,1.90
2022-08-24T01:58:31.691Z,1.98
2022-08-24T01:59:35.449Z,1.85
2022-08-24T02:00:38.449Z,1.85
2022-08-24T02:01:46.118Z,2.13
2022-08-24T02:02:48.418Z,1.90
2022-08-24T02:03:51.738Z,2.03
2022-08-24T02:04:55.674Z,1.75
2022-08-24T02:05:58.903Z,1.42
2022-08-24T02:07:02.700Z,1.48
2022-08-24T02:08:06.653Z,1.58
2022-08-24T02:09:08.862Z,1.95
2022-08-24T02:10:12.954Z,1.63
2022-08-24T02:11:15.741Z,1.48
2022-08-24T02:12:18.795Z,1.52
2022-08-24T02:13:21.464Z,1.77
2022-08-24T02:14:23.719Z,1.70
2022-08-24T02:15:36.297Z,1.80
2022-08-24T02:16:39.142Z,1.58
2022-08-24T02:17:41.383Z,1.83
2022-08-24T02:18:44.367Z,1.50
2022-08-24T02:19:48.009Z,1.80
2022-08-24T02:20:50.720Z,1.88
2022-08-24T02:21:53.281Z,2.00
2022-08-24T02:22:55.546Z,1.77
2022-08-24T02:23:57.782Z,1.60
2022-08-24T02:25:00.231Z,1.95
2022-08-24T02:26:04.319Z,1.60
2022-08-24T02:27:08.307Z,1.42
2022-08-24T02:28:10.743Z,1.58
2022-08-24T02:29:12.948Z,1.85
2022-08-24T02:30:16.097Z,1.65
2022-08-24T02:31:18.431Z,1.70
2022-08-24T02:32:21.423Z,1.67
2022-08-24T02:33:25.406Z,1.63
2022-08-24T02:34:27.697Z,1.70
2022-08-24T02:35:30.459Z,1.98
2022-08-24T02:36:33.139Z,1.77
2022-08-24T02:37:36.123Z,1.75
2022-08-24T02:38:47.363Z,2.22
2022-08-24T02:39:53.212Z,1.60
2022-08-24T02:40:57.953Z,1.90
2022-08-24T02:42:00.652Z,1.70
2022-08-24T02:43:03.639Z,1.42
2022-08-24T02:44:07.231Z,1.75
2022-08-24T02:45:10.643Z,1.48
2022-08-24T02:46:18.938Z,1.60
2022-08-24T02:47:21.448Z,2.10
2022-08-24T02:48:40.465Z,2.03
2022-08-24T02:49:42.835Z,2.05
2022-08-24T02:50:49.121Z,2.10
2022-08-24T02:51:51.398Z,2.00
2022-08-24T02:52:55.784Z,1.55
2022-08-24T02:54:00.664Z,2.03
2022-08-24T02:55:04.562Z,1.98
2022-08-24T02:56:07.331Z,1.83
2022-08-24T02:57:10.206Z,1.88
2022-08-24T02:58:13.969Z,1.70
2022-08-24T02:59:17.034Z,2.33
2022-08-24T03:00:21.693Z,2.15
2022-08-24T03:01:30.655Z,1.88
2022-08-24T03:02:33.685Z,1.80
2022-08-24T03:03:36.262Z,1.90
2022-08-24T03:04:38.944Z,2.08
2022-08-24T03:05:41.263Z,2.42
2022-08-24T03:06:44.081Z,2.13
2022-08-24T03:07:46.275Z,2.10
2022-08-24T03:08:54.705Z,2.00
2022-08-24T03:09:58.637Z,3.00
2022-08-24T03:11:01.013Z,1.85
2022-08-24T03:12:03.875Z,1.90
2022-08-24T03:13:09.981Z,2.08
2022-08-24T03:14:13.227Z,2.05
2022-08-24T03:15:15.757Z,2.20
2022-08-24T03:16:18.427Z,2.30
2022-08-24T03:17:20.737Z,2.15
2022-08-24T03:18:24.618Z,2.00
2022-08-24T03:19:27.871Z,2.10
2022-08-24T03:20:30.461Z,1.70
2022-08-24T03:21:33.964Z,2.42
2022-08-24T03:22:36.377Z,2.10
2022-08-24T03:23:38.652Z,2.30
2022-08-24T03:24:40.852Z,2.30
2022-08-24T03:25:43.202Z,2.80
2022-08-24T03:26:45.430Z,2.20
2022-08-24T03:27:48.489Z,2.30
2022-08-24T03:28:52.757Z,2.17
2022-08-24T03:29:55.548Z,2.10
2022-08-24T03:30:57.894Z,2.80
2022-08-24T03:32:00.533Z,2.10
2022-08-24T03:33:03.740Z,2.28
2022-08-24T03:34:06.187Z,2.13
2022-08-24T03:35:10.381Z,2.40
2022-08-24T03:36:14.453Z,1.83
2022-08-24T03:37:17.521Z,2.53
2022-08-24T03:38:21.280Z,2.50
2022-08-24T03:39:24.652Z,2.08
2022-08-24T03:40:33.085Z,2.38
2022-08-24T03:41:35.408Z,2.30
2022-08-24T03:42:40.467Z,2.67
2022-08-24T03:43:46.587Z,2.38
2022-08-24T03:44:50.260Z,2.35
2022-08-24T03:45:53.144Z,2.30
2022-08-24T03:46:56.308Z,2.10
2022-08-24T03:48:00.445Z,2.35
2022-08-24T03:49:05.861Z,2.58
2022-08-24T03:50:10.577Z,2.47
2022-08-24T03:51:16.384Z,2.97
2022-08-24T03:52:18.623Z,2.80
2022-08-24T03:53:21.053Z,2.50
2022-08-24T03:54:23.395Z,2.50
2022-08-24T03:55:25.894Z,2.45
2022-08-24T03:56:28.536Z,2.30
2022-08-24T03:57:31.605Z,2.53
2022-08-24T03:58:36.383Z,2.35
2022-08-24T03:59:46.446Z,2.40
2022-08-24T04:00:50.096Z,3.25
2022-08-24T04:01:55.727Z,2.50
2022-08-24T04:02:58.078Z,2.67
2022-08-24T04:04:05.541Z,2.00
2022-08-24T04:05:11.068Z,2.83
2022-08-24T04:06:15.973Z,2.28
2022-08-24T04:07:18.524Z,2.38
2022-08-24T04:08:21.134Z,2.33
2022-08-24T04:09:23.429Z,2.35
2022-08-24T04:10:25.605Z,2.20
2022-08-24T04:11:29.655Z,2.65
2022-08-24T04:12:31.845Z,2.70
2022-08-24T04:13:34.004Z,2.67
2022-08-24T04:14:36.285Z,2.28
2022-08-24T04:15:45.539Z,2.35
2022-08-24T04:16:51.633Z,2.47
2022-08-24T04:18:05.991Z,2.05
2022-08-24T04:19:08.628Z,2.30
2022-08-24T04:20:11.497Z,2.47
2022-08-24T04:21:25.700Z,2.38
2022-08-24T04:22:31.013Z,2.38
2022-08-24T04:23:46.797Z,2.40
2022-08-24T04:24:50.956Z,2.63
2022-08-24T04:25:53.432Z,2.25
2022-08-24T04:26:55.992Z,2.80
2022-08-24T04:28:00.016Z,2.45
2022-08-24T04:29:04.322Z,2.17
2022-08-24T04:31:38.086Z,2.35
2022-08-24T04:32:40.855Z,1.73
2022-08-24T04:33:47.162Z,2.25
2022-08-24T04:34:57.740Z,2.10
2022-08-24T04:36:00.623Z,2.88
2022-08-24T04:37:09.598Z,2.15
2022-08-24T04:38:14.910Z,2.30
2022-08-24T04:39:22.784Z,2.03
2022-08-24T04:40:47.150Z,2.22
2022-08-24T04:41:51.145Z,2.65
2022-08-24T04:42:55.553Z,2.30
2022-08-24T04:43:59.122Z,2.38
2022-08-24T04:45:01.567Z,2.70
2022-08-24T04:46:08.123Z,2.92
2022-08-24T04:47:10.360Z,2.40
2022-08-24T04:48:15.581Z,2.05
2022-08-24T04:49:17.839Z,2.70
2022-08-24T04:50:20.250Z,3.03
2022-08-24T04:51:27.042Z,2.30
2022-08-24T04:52:37.009Z,2.17
2022-08-24T04:53:40.184Z,2.28
2022-08-24T04:54:42.418Z,2.33
2022-08-24T04:55:53.218Z,2.58
2022-08-24T04:56:55.424Z,2.25
2022-08-24T04:57:57.715Z,2.70
2022-08-24T04:59:01.441Z,2.30
2022-08-24T05:00:05.832Z,2.50
2022-08-24T05:01:10.270Z,2.30
2022-08-24T05:02:13.160Z,2.47
2022-08-24T05:03:15.710Z,2.72
2022-08-24T05:04:18.261Z,2.65
2022-08-24T05:05:20.530Z,2.50
2022-08-24T05:06:26.030Z,2.40
2022-08-24T05:07:29.561Z,2.50
2022-08-24T05:08:32.294Z,2.40
2022-08-24T05:09:34.576Z,2.63
2022-08-24T05:10:39.640Z,2.60
2022-08-24T05:11:41.886Z,2.45
2022-08-24T05:12:54.968Z,2.47
2022-08-24T05:13:58.635Z,2.75
2022-08-24T05:15:00.983Z,2.53
2022-08-24T05:16:10.204Z,2.05
2022-08-24T05:17:12.459Z,2.25
2022-08-24T05:18:16.781Z,2.78
2022-08-24T05:19:19.238Z,3.05
2022-08-24T05:20:21.677Z,2.38
2022-08-24T05:21:28.366Z,2.05
2022-08-24T05:22:31.831Z,2.10
2022-08-24T05:23:35.786Z,2.13
2022-08-24T05:24:38.037Z,2.55
2022-08-24T05:25:40.849Z,2.42
2022-08-24T05:26:43.621Z,2.17
2022-08-24T05:27:47.397Z,2.25
2022-08-24T05:28:50.488Z,2.33
2022-08-24T05:29:54.639Z,2.70
2022-08-24T05:31:09.679Z,2.33
2022-08-24T05:32:12.873Z,2.92
2022-08-24T05:33:15.247Z,2.40
2022-08-24T05:34:18.431Z,2.22
2022-08-24T05:35:21.693Z,2.25
2022-08-24T05:36:30.183Z,2.53
2022-08-24T05:37:35.405Z,2.17
2022-08-24T05:38:53.138Z,2.10
2022-08-24T05:39:55.448Z,2.63
2022-08-24T05:40:57.856Z,2.85
2022-08-24T05:42:02.441Z,2.53
2022-08-24T05:43:07.401Z,2.60
2022-08-24T05:44:11.506Z,2.60
2022-08-24T05:45:13.814Z,2.20
2022-08-24T05:46:16.276Z,2.50
2022-08-24T05:47:18.851Z,2.40
2022-08-24T05:48:22.123Z,2.58
2022-08-24T05:49:43.293Z,2.53
2022-08-24T05:50:55.471Z,2.50
2022-08-24T05:51:59.934Z,2.67
2022-08-24T05:53:02.293Z,3.63
2022-08-24T05:54:06.333Z,2.88
2022-08-24T05:55:19.419Z,2.50
2022-08-24T05:56:21.845Z,2.60
2022-08-24T05:57:27.099Z,2.67
2022-08-24T05:58:46.989Z,2.28
2022-08-24T05:59:50.362Z,2.70
2022-08-24T06:00:53.315Z,3.03
2022-08-24T06:01:55.679Z,3.42
2022-08-24T06:02:58.115Z,2.75
2022-08-24T06:04:00.402Z,3.22
2022-08-24T06:05:03.086Z,2.88
2022-08-24T06:06:07.615Z,3.65
2022-08-24T06:07:10.207Z,2.72
2022-08-24T06:08:15.799Z,2.33
2022-08-24T06:09:18.054Z,2.75
2022-08-24T06:10:36.280Z,2.80
2022-08-24T06:11:41.909Z,2.80
2022-08-24T06:12:44.214Z,2.85
2022-08-24T06:13:46.383Z,2.75
2022-08-24T06:14:56.125Z,2.28
2022-08-24T06:16:47.886Z,3.03
2022-08-24T06:17:33.914Z,2.63
2022-08-24T06:18:36.370Z,2.85
2022-08-24T06:19:42.301Z,2.67
2022-08-24T06:20:44.633Z,2.90
2022-08-24T06:21:52.220Z,2.75
2022-08-24T06:22:54.604Z,2.65
2022-08-24T06:24:00.241Z,2.72
2022-08-24T06:25:21.769Z,2.85
2022-08-24T06:26:44.455Z,2.88
2022-08-24T06:27:51.191Z,2.80
2022-08-24T06:28:53.738Z,2.20
2022-08-24T06:30:06.258Z,2.60
2022-08-24T06:31:17.288Z,2.53
2022-08-24T06:32:19.920Z,2.65
2022-08-24T06:33:22.420Z,2.45
2022-08-24T06:34:27.095Z,2.45
2022-08-24T06:35:29.583Z,2.03
2022-08-24T06:36:32.632Z,2.42
2022-08-24T06:37:34.823Z,2.42
2022-08-24T06:38:37.560Z,2.65
2022-08-24T06:39:40.829Z,2.50
2022-08-24T06:40:43.030Z,2.50
2022-08-24T06:41:46.106Z,2.38
2022-08-24T06:42:55.124Z,2.75
2022-08-24T06:44:08.704Z,1.98
2022-08-24T06:45:22.744Z,2.65
2022-08-24T06:46:32.018Z,2.33
2022-08-24T06:47:35.294Z,2.00
2022-08-24T06:48:37.537Z,2.55
2022-08-24T06:49:40.777Z,2.03
2022-08-24T06:50:43.062Z,2.25
2022-08-24T06:51:50.424Z,2.47
2022-08-24T06:52:53.280Z,2.97
2022-08-24T06:53:58.825Z,2.50
2022-08-24T06:55:01.938Z,2.60
2022-08-24T06:56:05.821Z,2.45
2022-08-24T06:57:09.343Z,2.70
2022-08-24T06:58:11.579Z,2.30
2022-08-24T06:59:14.060Z,2.53
2022-08-24T07:00:17.521Z,3.25
2022-08-24T07:01:26.349Z,2.60
2022-08-24T07:02:29.319Z,2.88
2022-08-24T07:03:32.041Z,2.90
2022-08-24T07:04:50.901Z,2.55
2022-08-24T07:06:13.586Z,2.50
2022-08-24T07:07:17.323Z,2.35
2022-08-24T07:08:20.979Z,2.40
2022-08-24T07:09:26.150Z,2.83
2022-08-24T07:10:30.415Z,2.42
2022-08-24T07:11:35.050Z,2.50
2022-08-24T07:12:37.998Z,2.33
2022-08-24T07:13:40.575Z,1.90
2022-08-24T07:14:43.309Z,2.30
2022-08-24T07:15:45.612Z,2.35
2022-08-24T07:16:49.172Z,2.92
2022-08-24T07:17:51.430Z,2.67
2022-08-24T07:18:53.796Z,1.95
2022-08-24T07:19:56.930Z,2.45
2022-08-24T07:21:25.299Z,2.10
2022-08-24T07:22:28.433Z,2.08
2022-08-24T07:23:41.946Z,1.83
2022-08-24T07:24:46.636Z,2.13
2022-08-24T07:25:54.185Z,2.10
2022-08-24T07:26:58.195Z,2.25
2022-08-24T07:28:03.149Z,2.10
2022-08-24T07:29:30.645Z,1.75
2022-08-24T07:30:34.369Z,2.00
2022-08-24T07:31:39.566Z,1.73
2022-08-24T07:32:47.102Z,2.53
2022-08-24T07:33:49.364Z,1.95
2022-08-24T07:34:51.595Z,1.95
2022-08-24T07:35:55.138Z,3.05
2022-08-24T07:37:00.492Z,2.38
2022-08-24T07:38:07.622Z,1.75
2022-08-24T07:39:10.217Z,1.83
2022-08-24T07:40:13.069Z,1.85
2022-08-24T07:41:38.185Z,1.90
2022-08-24T07:42:40.127Z,1.83
2022-08-24T07:43:43.006Z,1.83
2022-08-24T07:44:46.010Z,2.40
2022-08-24T07:45:49.490Z,2.00
2022-08-24T07:46:52.498Z,2.20
2022-08-24T07:47:56.029Z,1.73
2022-08-24T07:49:36.821Z,2.00
2022-08-24T07:50:41.091Z,1.85
2022-08-24T07:51:44.936Z,2.17
2022-08-24T07:52:49.434Z,2.15
2022-08-24T07:53:53.880Z,2.17
2022-08-24T07:55:01.407Z,2.25
2022-08-24T07:56:03.928Z,1.88
2022-08-24T07:57:08.059Z,2.08
2022-08-24T07:58:11.157Z,1.80
2022-08-24T07:59:14.013Z,2.38
2022-08-24T08:00:19.694Z,2.03
2022-08-24T08:02:36.160Z,2.20
2022-08-24T08:03:38.982Z,2.03
2022-08-24T08:04:42.090Z,2.00
2022-08-24T08:05:44.714Z,2.33
2022-08-24T08:06:47.216Z,1.90
2022-08-24T08:07:52.406Z,2.00
2022-08-24T08:08:55.448Z,2.90
2022-08-24T08:09:57.917Z,2.17
2022-08-24T08:11:01.990Z,2.00
2022-08-24T08:12:04.627Z,1.98
2022-08-24T08:13:07.463Z,2.08
2022-08-24T08:14:10.192Z,2.38
2022-08-24T08:15:12.606Z,2.20
2022-08-24T08:16:22.740Z,2.90
2022-08-24T08:17:25.608Z,2.13
2022-08-24T08:18:28.539Z,2.33
2022-08-24T08:19:33.046Z,1.90
2022-08-24T08:20:37.930Z,2.00
2022-08-24T08:22:08.926Z,1.90
2022-08-24T08:23:42.731Z,1.92
2022-08-24T08:24:51.886Z,2.30
2022-08-24T08:25:57.504Z,2.25
2022-08-24T08:27:21.763Z,2.28
2022-08-24T08:28:33.062Z,1.98
2022-08-24T08:29:40.468Z,2.22
2022-08-24T08:30:45.379Z,1.80
2022-08-24T08:31:49.138Z,1.85
2022-08-24T08:32:51.644Z,2.45
2022-08-24T08:33:53.889Z,2.08
2022-08-24T08:35:00.183Z,2.00
2022-08-24T08:36:12.601Z,2.38
2022-08-24T08:37:20.289Z,2.65
2022-08-24T08:38:22.713Z,1.75
2022-08-24T08:39:26.366Z,1.95
2022-08-24T08:40:45.143Z,2.30
2022-08-24T08:42:19.277Z,1.85
2022-08-24T08:43:52.680Z,2.25
2022-08-24T08:45:26.288Z,1.88
2022-08-24T08:47:08.726Z,1.92
2022-08-24T08:48:32.101Z,1.80
2022-08-24T08:49:55.232Z,1.77
2022-08-24T08:51:15.467Z,2.10
2022-08-24T08:52:48.600Z,1.88
2022-08-24T08:54:27.103Z,2.47
2022-08-24T08:55:41.435Z,2.38
2022-08-24T08:57:05.044Z,2.33
2022-08-24T08:58:39.985Z,2.22
2022-08-24T08:59:57.674Z,1.90
2022-08-24T09:01:14.618Z,2.10
2022-08-24T09:02:55.831Z,2.35
2022-08-24T09:04:21.443Z,1.95
2022-08-24T09:07:00.922Z,2.25
2022-08-24T09:08:09.258Z,2.08
2022-08-24T09:09:35.190Z,2.20
2022-08-24T09:10:54.747Z,2.13
2022-08-24T09:12:17.524Z,1.67
2022-08-24T09:13:55.779Z,2.70
2022-08-24T09:15:39.093Z,2.00
2022-08-24T09:16:48.925Z,1.92
2022-08-24T09:18:26.300Z,2.00
2022-08-24T09:19:32.058Z,2.20
2022-08-24T09:21:14.131Z,2.10
2022-08-24T09:22:19.809Z,2.30
2022-08-24T09:23:50.754Z,1.80
2022-08-24T09:24:52.952Z,2.05
2022-08-24T09:26:33.363Z,2.42
2022-08-24T09:28:08.350Z,2.08
2022-08-24T09:29:54.686Z,1.83
2022-08-24T09:31:15.817Z,2.03
2022-08-24T09:32:34.326Z,2.17
2022-08-24T09:33:43.577Z,2.05
2022-08-24T09:34:59.707Z,1.88
2022-08-24T09:36:08.205Z,1.92
2022-08-24T09:37:30.466Z,2.15
2022-08-24T09:39:00.325Z,2.63
2022-08-24T09:40:46.857Z,2.60
2022-08-24T09:42:10.256Z,1.80
2022-08-24T09:43:43.991Z,2.53
2022-08-24T09:45:19.819Z,2.90
2022-08-24T09:46:47.991Z,2.55
2022-08-24T09:48:24.187Z,2.30
2022-08-24T09:49:44.592Z,1.80
2022-08-24T09:52:31.639Z,2.03
2022-08-24T09:53:42.749Z,2.25
2022-08-24T09:55:25.697Z,2.15
2022-08-24T09:56:34.912Z,2.05
2022-08-24T09:58:01.826Z,2.15
2022-08-24T09:59:19.755Z,1.90
2022-08-24T10:00:30.075Z,1.83
2022-08-24T10:02:09.494Z,2.08
2022-08-24T10:03:38.679Z,1.98
2022-08-24T10:05:05.526Z,2.45
2022-08-24T10:06:28.669Z,2.35
2022-08-24T10:07:49.396Z,1.80
2022-08-24T10:09:01.551Z,1.65
2022-08-24T10:10:15.993Z,2.13
2022-08-24T10:11:45.022Z,2.00
2022-08-24T10:13:20.472Z,1.85
2022-08-24T10:14:44.392Z,1.90
2022-08-24T10:15:55.418Z,2.10
2022-08-24T10:17:12.780Z,1.98
2022-08-24T10:18:40.696Z,2.10
2022-08-24T10:19:58.116Z,2.28
2022-08-24T10:21:12.268Z,2.00
2022-08-24T10:22:32.408Z,2.05
2022-08-24T10:24:02.005Z,2.08
2022-08-24T10:25:37.433Z,2.20
2022-08-24T10:27:10.670Z,1.85
2022-08-24T10:28:48.867Z,2.15
2022-08-24T10:30:35.862Z,2.13
2022-08-24T10:31:47.838Z,1.67
2022-08-24T10:33:04.346Z,2.10
2022-08-24T10:34:35.002Z,1.92
2022-08-24T10:35:50.344Z,2.05
2022-08-24T10:37:07.620Z,2.20
2022-08-24T10:38:48.094Z,2.20
2022-08-24T10:41:49.803Z,1.95
2022-08-24T10:43:35.651Z,1.95
2022-08-24T10:44:50.013Z,1.80
2022-08-24T10:46:30.941Z,1.75
2022-08-24T10:47:36.510Z,1.90
2022-08-24T10:48:44.840Z,1.70
2022-08-24T10:50:16.009Z,1.80
2022-08-24T10:51:51.402Z,2.03
2022-08-24T10:53:11.979Z,1.90
2022-08-24T10:54:14.411Z,2.03
2022-08-24T10:55:23.582Z,1.77
2022-08-24T10:56:42.083Z,1.90
2022-08-24T10:57:51.042Z,1.55
2022-08-24T10:59:08.842Z,2.05
2022-08-24T11:00:22.700Z,1.67
2022-08-24T11:01:31.393Z,1.88
2022-08-24T11:02:35.232Z,1.75
2022-08-24T11:03:48.838Z,1.90
2022-08-24T11:04:59.620Z,1.75
2022-08-24T11:06:15.060Z,1.60
2022-08-24T11:07:19.773Z,2.20
2022-08-24T11:08:23.539Z,2.28
2022-08-24T11:09:44.543Z,1.90
2022-08-24T11:11:02.813Z,2.17
2022-08-24T11:12:18.209Z,1.80
2022-08-24T11:13:27.249Z,1.83
2022-08-24T11:14:31.881Z,1.55
2022-08-24T11:15:34.088Z,1.50
2022-08-24T11:16:42.657Z,1.77
2022-08-24T11:17:59.198Z,1.58
2022-08-24T11:19:05.098Z,1.83
2022-08-24T11:20:54.984Z,1.45
2022-08-24T11:22:05.441Z,1.67
2022-08-24T11:23:17.779Z,1.40
2022-08-24T11:24:26.856Z,1.55
2022-08-24T11:25:34.313Z,1.33
2022-08-24T11:26:53.703Z,1.27
2022-08-24T11:28:05.918Z,1.38
2022-08-24T11:29:08.271Z,1.60
2022-08-24T11:30:23.288Z,1.20
2022-08-24T11:31:39.074Z,1.00
2022-08-24T11:32:51.229Z,1.73
2022-08-24T11:34:03.540Z,1.85
2022-08-24T11:35:26.123Z,1.60
2022-08-24T11:36:34.757Z,1.60
2022-08-24T11:37:39.638Z,1.63
2022-08-24T11:38:45.638Z,1.63
2022-08-24T11:39:48.511Z,1.50
2022-08-24T11:40:56.634Z,1.48
2022-08-24T11:42:14.475Z,1.58
2022-08-24T11:43:19.375Z,1.80
2022-08-24T11:44:33.388Z,1.75
2022-08-24T11:45:41.178Z,1.63
2022-08-24T11:47:03.384Z,1.70
2022-08-24T11:48:31.635Z,1.67
2022-08-24T11:50:02.261Z,1.55
2022-08-24T11:51:24.283Z,1.75
2022-08-24T11:52:48.202Z,1.60
2022-08-24T11:53:56.028Z,1.38
2022-08-24T11:55:18.477Z,1.38
2022-08-24T11:56:50.492Z,1.70
2022-08-24T11:57:55.812Z,1.83
2022-08-24T11:59:20.025Z,1.90
2022-08-24T12:00:30.206Z,1.70
2022-08-24T12:01:56.614Z,2.00
2022-08-24T12:03:09.045Z,2.65
2022-08-24T12:04:40.727Z,1.70
2022-08-24T12:06:08.118Z,1.55
2022-08-24T12:07:28.895Z,1.80
2022-08-24T12:08:41.907Z,1.80
2022-08-24T12:09:56.115Z,1.70
2022-08-24T12:10:58.262Z,1.60
2022-08-24T12:12:18.280Z,1.70
2022-08-24T12:13:38.937Z,1.48
2022-08-24T12:15:11.493Z,1.42
2022-08-24T12:16:35.352Z,1.77
2022-08-24T12:17:46.869Z,1.67
2022-08-24T12:19:09.008Z,1.40
2022-08-24T12:20:33.912Z,1.70
2022-08-24T12:21:39.747Z,1.33
2022-08-24T12:22:42.648Z,1.52
2022-08-24T12:23:49.717Z,1.30
2022-08-24T12:24:55.626Z,1.38
2022-08-24T12:26:14.248Z,1.30
2022-08-24T12:27:20.463Z,1.15
2022-08-24T12:28:32.083Z,1.17
2022-08-24T12:29:51.638Z,1.45
2022-08-24T12:30:58.095Z,1.50
2022-08-24T12:32:15.979Z,1.55
2022-08-24T12:33:23.346Z,1.83
2022-08-24T12:34:50.377Z,1.27
2022-08-24T12:35:59.421Z,1.55
2022-08-24T12:37:19.709Z,1.60
2022-08-24T12:39:36.161Z,1.95
2022-08-24T12:40:43.107Z,1.70
2022-08-24T12:42:14.549Z,1.70
2022-08-24T12:43:28.110Z,1.50
2022-08-24T12:44:40.657Z,1.88
2022-08-24T12:45:44.779Z,1.50
2022-08-24T12:46:54.345Z,1.98
2022-08-24T12:48:00.582Z,1.98
2022-08-24T12:49:08.323Z,2.72
2022-08-24T12:50:28.514Z,1.70
2022-08-24T12:52:01.504Z,1.80
2022-08-24T12:53:15.761Z,1.70
2022-08-24T12:54:50.402Z,1.67
2022-08-24T12:56:10.895Z,1.60
2022-08-24T12:57:19.671Z,1.73
2022-08-24T12:58:54.496Z,1.90
2022-08-24T13:00:06.980Z,1.40
2022-08-24T13:01:14.336Z,1.48
2022-08-24T13:02:19.735Z,1.95
2022-08-24T13:03:30.838Z,1.75
2022-08-24T13:04:54.799Z,1.55
2022-08-24T13:06:00.762Z,1.88
2022-08-24T13:07:39.957Z,2.15
2022-08-24T13:08:46.007Z,2.30
2022-08-24T13:09:52.456Z,1.77
2022-08-24T13:11:05.976Z,1.77
2022-08-24T13:12:30.822Z,2.15
2022-08-24T13:14:18.434Z,1.80
2022-08-24T13:15:28.156Z,1.90
2022-08-24T13:17:10.499Z,2.05
2022-08-24T13:18:12.627Z,2.17
2022-08-24T13:19:35.773Z,1.77
2022-08-24T13:20:43.754Z,1.67
2022-08-24T13:22:09.338Z,2.10
2022-08-24T13:23:11.531Z,2.00
2022-08-24T13:24:29.087Z,1.85
2022-08-24T13:25:46.984Z,1.85
2022-08-24T13:26:49.219Z,1.80
2022-08-24T13:28:05.915Z,1.73
2022-08-24T13:29:08.831Z,1.67
2022-08-24T13:30:24.931Z,2.15
2022-08-24T13:31:43.511Z,2.10
2022-08-24T13:32:57.059Z,1.92
2022-08-24T13:34:21.336Z,2.05
2022-08-24T13:35:38.911Z,2.15
2022-08-24T13:37:02.439Z,1.73
2022-08-24T13:38:34.107Z,1.83
2022-08-24T13:39:48.574Z,2.10
2022-08-24T13:40:58.899Z,2.20
2022-08-24T13:42:19.525Z,2.25
2022-08-24T13:43:36.455Z,2.63
2022-08-24T13:44:57.113Z,2.38
2022-08-24T13:46:36.623Z,1.80
2022-08-24T13:47:57.490Z,1.70
2022-08-24T13:49:18.703Z,1.80
2022-08-24T13:50:43.399Z,1.85
2022-08-24T13:51:54.993Z,1.90
2022-08-24T13:53:34.505Z,1.95
2022-08-24T13:54:53.275Z,2.05
2022-08-24T13:56:20.475Z,2.00
2022-08-24T13:57:35.584Z,2.08
2022-08-24T13:58:39.285Z,1.90
2022-08-24T13:59:56.391Z,2.10
2022-08-24T14:01:25.304Z,2.17
2022-08-24T14:02:48.693Z,2.08
2022-08-24T14:04:00.571Z,1.90
2022-08-24T14:05:25.020Z,2.25
2022-08-24T14:06:50.927Z,2.15
2022-08-24T14:08:12.212Z,2.08
2022-08-24T14:09:26.410Z,2.22
2022-08-24T14:10:51.887Z,2.20
2022-08-24T14:12:02.390Z,1.80
2022-08-24T14:13:47.890Z,2.20
2022-08-24T14:15:09.080Z,1.77
2022-08-24T14:16:59.442Z,1.98
2022-08-24T14:18:22.648Z,1.77
2022-08-24T14:19:47.184Z,1.83
2022-08-24T14:21:09.068Z,2.00
2022-08-24T14:22:11.225Z,2.00
2022-08-24T14:23:21.899Z,2.75
2022-08-24T14:24:31.705Z,1.70
2022-08-24T14:25:35.955Z,2.15
2022-08-24T14:26:38.637Z,1.90
2022-08-24T14:27:49.841Z,2.03
2022-08-24T14:28:52.279Z,2.05
2022-08-24T14:30:17.359Z,2.13
2022-08-24T14:31:29.501Z,2.03
2022-08-24T14:32:34.795Z,1.73
2022-08-24T14:34:03.146Z,2.28
2022-08-24T14:35:30.429Z,1.90
2022-08-24T14:36:57.607Z,2.33
2022-08-24T14:38:22.435Z,2.13
2022-08-24T14:39:45.542Z,2.08
2022-08-24T14:41:16.878Z,2.20
2022-08-24T14:42:37.757Z,1.85
2022-08-24T14:44:03.831Z,2.35
2022-08-24T14:45:10.511Z,2.33
2022-08-24T14:46:33.826Z,2.45
2022-08-24T14:48:13.881Z,2.53
2022-08-24T14:49:33.848Z,2.45
2022-08-24T14:50:44.809Z,2.05
2022-08-24T14:51:59.085Z,2.03
2022-08-24T14:53:26.615Z,2.47
2022-08-24T14:54:44.855Z,1.70
2022-08-24T14:56:16.151Z,2.03
2022-08-24T14:57:30.529Z,2.30
2022-08-24T14:58:51.702Z,2.03
2022-08-24T15:00:15.146Z,2.20
2022-08-24T15:01:37.678Z,2.38
2022-08-24T15:02:51.907Z,2.35
2022-08-24T15:04:30.703Z,2.40
2022-08-24T15:06:16.025Z,2.15
2022-08-24T15:07:25.458Z,2.67
2022-08-24T15:08:35.828Z,2.67
2022-08-24T15:09:38.658Z,2.45
2022-08-24T15:10:58.864Z,2.05
2022-08-24T15:12:28.927Z,2.40
2022-08-24T15:14:19.775Z,2.50
2022-08-24T15:15:33.958Z,2.00
2022-08-24T15:16:39.908Z,2.08
2022-08-24T15:18:06.666Z,2.60
2022-08-24T15:19:11.735Z,2.28
2022-08-24T15:20:38.966Z,2.35
2022-08-24T15:22:01.274Z,2.15
2022-08-24T15:23:11.989Z,2.13
2022-08-24T15:24:34.443Z,1.95
2022-08-24T15:25:47.954Z,2.08
2022-08-24T15:27:11.389Z,2.17
2022-08-24T15:28:32.751Z,2.17
2022-08-24T15:29:46.069Z,1.90
2022-08-24T15:30:58.608Z,2.30
2022-08-24T15:32:11.378Z,2.33
2022-08-24T15:33:19.658Z,2.50
2022-08-24T15:34:53.171Z,1.98
2022-08-24T15:36:12.679Z,1.95
2022-08-24T15:37:25.298Z,2.60
2022-08-24T15:38:30.224Z,2.20
2022-08-24T15:39:32.770Z,2.33
2022-08-24T15:40:35.005Z,2.60
2022-08-24T15:41:42.297Z,2.30
2022-08-24T15:42:44.677Z,2.97
2022-08-24T15:43:50.134Z,2.10
2022-08-24T15:44:52.844Z,2.10
2022-08-24T15:45:55.605Z,2.28
2022-08-24T15:47:09.875Z,2.10
2022-08-24T15:48:14.703Z,2.78
2022-08-24T15:49:17.766Z,2.33
2022-08-24T15:50:31.026Z,2.20
2022-08-24T15:51:38.864Z,2.25
2022-08-24T15:52:56.173Z,2.13
2022-08-24T15:53:58.703Z,2.05